Cleveland, TX

2:16 AM CDT on June 25, 2017 (GMT -0500)
Cleveland

Weather History for K6R3 - May, 2013

Change the Weather History Date:

Monday, May 20, 2013

  Actual Average (KCXO) Record (KCXO)
Temperature  
Mean Temperature 80 °F -  
Max Temperature 88 °F 84 °F 93 °F (2001)
Min Temperature 73 °F 63 °F 48 °F (2002)
Cooling Degree Days 16    
Growing Degree Days 30 (Base 50)    
Moisture  
Dew Point 70 °F    
Average Humidity 74    
Maximum Humidity 89    
Minimum Humidity 54    
Precipitation  
Precipitation 0.00 in - - ()
Sea Level Pressure  
Sea Level Pressure 29.87 in    
Wind  
Wind Speed 7 mph (SSE)    
Max Wind Speed 17 mph    
Max Gust Speed 24 mph    
Visibility 6 miles    
Events      
Averages and records for this station are not official NWS values.
T = Trace of Precipitation, MM = Missing Value Source: NWS Daily Summary

Daily Weather History Graph

Daily Weather History Graph

Search for Another Location

Airport or City:

Trip Planner

Search our weather history database for the weather conditions in past years. The results will help you decide how hot, cold, wet, or windy it might be!

Date:

Astronomy

May. 20, 2013 Rise Set
Actual Time 6:22 AM CDT 8:10 PM CDT
Civil Twilight 5:56 AM CDT 8:37 PM CDT
Nautical Twilight 5:24 AM CDT 9:09 PM CDT
Astronomical Twilight 4:50 AM CDT 9:43 PM CDT
Moon 3:37 PM CDT (5/20) 2:57 AM CDT (5/20)
Length of Visible Light 14h 40m
Length of Day
13h 47m
Waxing Gibbous, 75% of the Moon is Illuminated
May 20
Waxing Gibbous
May 24
Full
May 31
Last Quarter
Jun 8
New
Jun 16
First Quarter

Hourly Weather History & Observations

Time (CDT) Temp. Heat Index Dew Point Humidity Pressure Visibility Wind Dir Wind Speed Gust Speed Precip Events Conditions
12:15 AM 73.4 °F - 70.0 °F 89% 29.90 in 5.0 mi SSE 3.5 mph - N/A   Scattered Clouds
12:35 AM 73.4 °F - 69.8 °F 88% 29.90 in 5.0 mi SE 3.5 mph - N/A   Clear
12:55 AM 73.9 °F - 70.2 °F 88% 29.89 in 5.0 mi South 4.6 mph - N/A   Scattered Clouds
1:15 AM 73.9 °F - 70.3 °F 88% 29.89 in 5.0 mi SSE 4.6 mph - N/A   Overcast
1:35 AM 74.5 °F - 70.7 °F 88% 29.88 in 5.0 mi SSE 3.5 mph - N/A   Overcast
1:55 AM 74.3 °F - 70.3 °F 87% 29.87 in 7.0 mi SSE 4.6 mph - N/A   Mostly Cloudy
2:15 AM 74.3 °F - 70.7 °F 88% 29.87 in 5.0 mi SSE 5.8 mph - N/A   Mostly Cloudy
2:35 AM 74.8 °F - 71.1 °F 88% 29.87 in 7.0 mi South 4.6 mph - N/A   Overcast
2:55 AM 74.7 °F - 70.9 °F 88% 29.87 in 5.0 mi South 4.6 mph - N/A   Overcast
3:15 AM 74.8 °F - 71.1 °F 88% 29.86 in 5.0 mi SSE 5.8 mph - N/A   Overcast
3:35 AM 75.2 °F - 71.2 °F 87% 29.87 in 5.0 mi South 6.9 mph - N/A   Overcast
3:55 AM 75.4 °F - 71.1 °F 86% 29.87 in 5.0 mi South 8.1 mph - N/A   Overcast
4:15 AM 75.7 °F - 70.7 °F 84% 29.87 in 7.0 mi South 6.9 mph - N/A   Overcast
4:35 AM 76.1 °F - 70.2 °F 82% 29.87 in 5.0 mi South 8.1 mph - N/A   Haze
4:55 AM 76.1 °F - 70.0 °F 81% 29.87 in 7.0 mi South 6.9 mph - N/A   Overcast
5:15 AM 75.7 °F - 70.0 °F 82% 29.87 in 7.0 mi SSE 4.6 mph - N/A   Overcast
5:35 AM 76.1 °F - 69.8 °F 81% 29.87 in 7.0 mi South 6.9 mph - N/A   Overcast
5:55 AM 76.1 °F - 69.3 °F 79% 29.88 in 7.0 mi SSE 4.6 mph - N/A   Overcast
6:15 AM 76.1 °F - 69.3 °F 79% 29.88 in 7.0 mi South 8.1 mph - N/A   Overcast
6:35 AM 76.3 °F - 69.3 °F 79% 29.88 in 5.0 mi South 12.7 mph - N/A   Haze
6:55 AM 76.5 °F - 69.1 °F 78% 29.89 in 5.0 mi SSE 5.8 mph - N/A   Haze
7:15 AM 76.5 °F - 69.4 °F 79% 29.89 in 5.0 mi SSE 4.6 mph - N/A   Haze
7:35 AM 77.0 °F - 69.8 °F 78% 29.90 in 5.0 mi South 8.1 mph - N/A   Haze
7:55 AM 77.5 °F - 69.3 °F 76% 29.91 in 5.0 mi South 10.4 mph - N/A   Haze
8:15 AM 78.3 °F - 69.3 °F 74% 29.91 in 7.0 mi SSE 9.2 mph 16.1 mph N/A   Mostly Cloudy
8:35 AM 79.0 °F - 69.1 °F 72% 29.91 in 5.0 mi SSE 10.4 mph 19.6 mph N/A   Haze
8:55 AM 78.3 °F - 68.9 °F 73% 29.92 in 5.0 mi SSE 9.2 mph 18.4 mph N/A   Haze
9:15 AM 78.3 °F - 69.3 °F 74% 29.92 in 5.0 mi South 12.7 mph 19.6 mph N/A   Haze
9:35 AM 78.4 °F - 69.6 °F 74% 29.92 in 7.0 mi South 6.9 mph 16.1 mph N/A   Overcast
9:55 AM 78.3 °F - 69.8 °F 75% 29.92 in 5.0 mi SSE 9.2 mph 18.4 mph N/A   Haze
10:15 AM 79.7 °F - 69.8 °F 72% 29.92 in 5.0 mi South 8.1 mph 20.7 mph N/A   Haze
10:35 AM 80.4 °F 83.6 °F 69.8 °F 70% 29.92 in 5.0 mi SSE 8.1 mph - N/A   Haze
10:55 AM 81.3 °F 85.0 °F 70.2 °F 69% 29.92 in 5.0 mi South 11.5 mph 16.1 mph N/A   Haze
11:15 AM 80.4 °F 83.8 °F 70.2 °F 71% 29.92 in 5.0 mi South 13.8 mph 17.3 mph N/A   Haze
11:35 AM 82.8 °F 87.4 °F 71.4 °F 68% 29.92 in 7.0 mi South 8.1 mph - N/A   Mostly Cloudy
11:55 AM 83.5 °F 87.4 °F 69.6 °F 63% 29.92 in 7.0 mi South 13.8 mph 23.0 mph N/A   Overcast
12:15 PM 83.7 °F 87.5 °F 69.4 °F 62% 29.91 in 7.0 mi South 15.0 mph 20.7 mph N/A   Overcast
12:35 PM 84.2 °F 88.1 °F 69.6 °F 61% 29.91 in 7.0 mi SSE 10.4 mph 21.9 mph N/A   Overcast
12:55 PM 85.6 °F 90.1 °F 69.8 °F 59% 29.90 in 7.0 mi SSE 11.5 mph 17.3 mph N/A   Overcast
1:35 PM 88.3 °F 93.6 °F 70.2 °F 55% 29.89 in 5.0 mi South 11.5 mph 23.0 mph N/A   Haze
1:55 PM 87.8 °F 92.2 °F 69.1 °F 54% 29.88 in 7.0 mi SSE 10.4 mph 24.2 mph N/A   Scattered Clouds
2:15 PM 87.6 °F 92.7 °F 70.0 °F 56% 29.88 in 7.0 mi SSE 12.7 mph 20.7 mph N/A   Mostly Cloudy
2:35 PM 87.8 °F 92.2 °F 69.1 °F 54% 29.88 in 7.0 mi South 16.1 mph 23.0 mph N/A   Scattered Clouds
2:55 PM 88.0 °F 92.5 °F 69.6 °F 54% 29.87 in 7.0 mi South 16.1 mph 21.9 mph N/A   Scattered Clouds
3:15 PM 87.4 °F 92.3 °F 70.0 °F 56% 29.87 in 7.0 mi SSE 10.4 mph 20.7 mph N/A   Scattered Clouds
3:35 PM 87.3 °F 92.0 °F 69.6 °F 56% 29.86 in 7.0 mi SSE 10.4 mph 21.9 mph N/A   Mostly Cloudy
3:55 PM 86.0 °F 90.4 °F 69.4 °F 58% 29.86 in 7.0 mi South 13.8 mph 20.7 mph N/A   Scattered Clouds
4:15 PM 85.1 °F 89.4 °F 69.6 °F 60% 29.85 in 7.0 mi South 10.4 mph 18.4 mph N/A   Mostly Cloudy
4:35 PM 86.2 °F 90.7 °F 69.6 °F 58% 29.84 in 5.0 mi South 17.3 mph 23.0 mph N/A   Haze
4:55 PM 86.4 °F 90.7 °F 69.3 °F 57% 29.84 in 7.0 mi South 13.8 mph 20.7 mph N/A   Clear
5:15 PM 85.8 °F 90.4 °F 69.8 °F 59% 29.83 in 7.0 mi South 9.2 mph 20.7 mph N/A   Clear
5:35 PM 82.8 °F 86.0 °F 68.7 °F 62% 29.82 in 7.0 mi South 12.7 mph 19.6 mph N/A   Clear
5:55 PM 82.8 °F 86.2 °F 69.1 °F 63% 29.82 in 5.0 mi South 15.0 mph 21.9 mph N/A   Haze
6:15 PM 83.3 °F 87.1 °F 69.4 °F 63% 29.81 in 7.0 mi South 15.0 mph 20.7 mph N/A   Scattered Clouds
6:35 PM 83.5 °F 87.7 °F 70.0 °F 64% 29.81 in 7.0 mi South 12.7 mph 18.4 mph N/A   Mostly Cloudy
6:55 PM 81.7 °F 85.1 °F 69.3 °F 66% 29.81 in 5.0 mi SSE 10.4 mph 24.2 mph N/A   Haze
7:15 PM 80.6 °F 83.9 °F 69.8 °F 70% 29.81 in 5.0 mi SSE 6.9 mph - N/A   Haze
7:35 PM 79.9 °F - 70.2 °F 72% 29.81 in 5.0 mi SSE 9.2 mph - N/A   Haze
7:55 PM 79.3 °F - 70.7 °F 75% 29.82 in 5.0 mi SSE 5.8 mph - N/A   Haze
8:15 PM 79.2 °F - 70.9 °F 76% 29.82 in 7.0 mi SSE 8.1 mph - N/A   Overcast
8:35 PM 78.8 °F - 71.2 °F 78% 29.82 in 7.0 mi SSE 6.9 mph - N/A   Overcast
8:55 PM 78.8 °F - 71.6 °F 78% 29.84 in 7.0 mi SSE 6.9 mph - N/A   Overcast
9:15 PM 78.8 °F - 71.6 °F 78% 29.84 in 5.0 mi SSE 6.9 mph - N/A   Haze
9:35 PM 78.3 °F - 71.6 °F 80% 29.84 in 7.0 mi SSE 6.9 mph - N/A   Overcast
9:55 PM 77.9 °F - 71.6 °F 81% 29.84 in 5.0 mi SSE 5.8 mph - N/A   Haze
10:15 PM 77.9 °F - 71.6 °F 81% 29.85 in 7.0 mi SSE 8.1 mph - N/A   Overcast
10:35 PM 77.9 °F - 71.6 °F 81% 29.86 in 7.0 mi SSE 5.8 mph - N/A   Overcast
10:55 PM 77.9 °F - 71.6 °F 81% 29.86 in 7.0 mi SSE 5.8 mph - N/A   Overcast
11:15 PM 77.9 °F - 71.6 °F 81% 29.87 in 7.0 mi SSE 4.6 mph - N/A   Overcast
11:35 PM 77.7 °F - 71.6 °F 81% 29.88 in 5.0 mi SSE 3.5 mph - N/A   Haze
11:55 PM 77.4 °F - 71.8 °F 83% 29.88 in 7.0 mi South 5.8 mph - N/A   Overcast